createdAt,value
2019-06-01T00:00:12.322Z,20.32
2019-06-01T00:01:11.227Z,20.32
2019-06-01T00:02:11.182Z,20.34
2019-06-01T00:03:11.186Z,20.32
2019-06-01T00:04:11.153Z,20.32
2019-06-01T00:05:11.152Z,20.31
2019-06-01T00:06:11.163Z,20.31
2019-06-01T00:07:11.153Z,20.32
2019-06-01T00:08:11.109Z,20.32
2019-06-01T00:09:11.101Z,20.32
2019-06-01T00:10:11.121Z,20.32
2019-06-01T00:11:11.079Z,20.34
2019-06-01T00:12:11.091Z,20.32
2019-06-01T00:13:11.062Z,20.32
2019-06-01T00:14:11.052Z,20.32
2019-06-01T00:15:11.040Z,20.34
2019-06-01T00:16:11.027Z,20.32
2019-06-01T00:17:11.042Z,20.32
2019-06-01T00:18:11.008Z,20.32
2019-06-01T00:19:10.991Z,20.31
2019-06-01T00:20:10.980Z,20.32
2019-06-01T00:21:10.966Z,20.34
2019-06-01T00:22:10.989Z,20.32
2019-06-01T00:23:10.946Z,20.32
2019-06-01T00:24:10.954Z,20.32
2019-06-01T00:25:10.931Z,20.32
2019-06-01T00:26:10.938Z,20.32
2019-06-01T00:27:10.945Z,20.31
2019-06-01T00:28:10.897Z,20.32
2019-06-01T00:29:10.905Z,20.32
2019-06-01T00:30:25.961Z,20.32
2019-06-01T00:31:11.854Z,20.32
2019-06-01T00:32:10.880Z,20.32
2019-06-01T00:33:10.837Z,20.32
2019-06-01T00:34:10.838Z,20.32
2019-06-01T00:35:10.815Z,20.31
2019-06-01T00:36:10.798Z,20.32
2019-06-01T00:37:10.821Z,20.32
2019-06-01T00:38:10.805Z,20.31
2019-06-01T00:39:10.772Z,20.32
2019-06-01T00:40:10.764Z,20.29
2019-06-01T00:41:10.745Z,20.31
2019-06-01T00:42:10.736Z,20.32
2019-06-01T00:43:10.753Z,20.31
2019-06-01T00:44:10.716Z,20.31
2019-06-01T00:45:10.731Z,20.31
2019-06-01T00:46:10.696Z,20.32
2019-06-01T00:47:10.676Z,20.31
2019-06-01T00:48:10.685Z,20.31
2019-06-01T00:49:10.690Z,20.31
2019-06-01T00:50:10.642Z,20.32
2019-06-01T00:51:10.632Z,20.32
2019-06-01T00:52:10.665Z,20.32
2019-06-01T00:53:10.613Z,20.31
2019-06-01T00:54:10.603Z,20.31
2019-06-01T00:55:10.588Z,20.31
2019-06-01T00:56:10.603Z,20.32
2019-06-01T00:57:10.571Z,20.31
2019-06-01T00:58:10.553Z,20.32
2019-06-01T00:59:10.569Z,20.32
2019-06-01T01:00:10.534Z,20.32
2019-06-01T01:01:10.553Z,20.32
2019-06-01T01:02:10.512Z,20.31
2019-06-01T01:03:10.529Z,20.31
2019-06-01T01:04:10.493Z,20.31
2019-06-01T01:05:10.478Z,20.31
2019-06-01T01:06:10.463Z,20.31
2019-06-01T01:07:10.458Z,20.32
2019-06-01T01:08:10.485Z,20.31
2019-06-01T01:09:10.441Z,20.29
2019-06-01T01:10:10.429Z,20.31
2019-06-01T01:11:10.415Z,20.31
2019-06-01T01:12:10.423Z,20.31
2019-06-01T01:13:10.420Z,20.31
2019-06-01T01:14:10.379Z,20.31
2019-06-01T01:15:10.384Z,20.31
2019-06-01T01:16:10.356Z,20.31
2019-06-01T01:17:10.351Z,20.31
2019-06-01T01:18:10.367Z,20.31
2019-06-01T01:19:10.329Z,20.31
2019-06-01T01:20:10.312Z,20.31
2019-06-01T01:21:10.303Z,20.29
2019-06-01T01:22:10.317Z,20.31
2019-06-01T01:23:10.310Z,20.31
2019-06-01T01:24:10.266Z,20.31
2019-06-01T01:25:10.260Z,20.31
2019-06-01T01:26:10.256Z,20.31
2019-06-01T01:27:10.238Z,20.29
2019-06-01T01:28:10.249Z,20.31
2019-06-01T01:29:10.214Z,20.31
2019-06-01T01:30:10.200Z,20.29
2019-06-01T01:31:13.697Z,20.29
2019-06-01T01:32:10.176Z,20.29
2019-06-01T01:33:10.249Z,20.29
2019-06-01T01:34:10.156Z,20.31
2019-06-01T01:35:10.166Z,20.29
2019-06-01T01:36:10.162Z,20.31
2019-06-01T01:37:10.124Z,20.29
2019-06-01T01:38:10.108Z,20.31
2019-06-01T01:39:10.099Z,20.29
2019-06-01T01:40:10.088Z,20.31
2019-06-01T01:41:10.109Z,20.31
2019-06-01T01:42:10.063Z,20.29
2019-06-01T01:43:10.060Z,20.31
2019-06-01T01:44:10.066Z,20.29
2019-06-01T01:45:10.054Z,20.32
2019-06-01T01:46:10.044Z,20.29
2019-06-01T01:47:10.016Z,20.29
2019-06-01T01:48:09.998Z,20.31
2019-06-01T01:49:10.027Z,20.29
2019-06-01T01:50:09.975Z,20.31
2019-06-01T01:51:09.965Z,20.29
2019-06-01T01:52:09.979Z,20.29
2019-06-01T01:53:09.948Z,20.29
2019-06-01T01:54:09.969Z,20.29
2019-06-01T01:55:09.927Z,20.31
2019-06-01T01:56:09.918Z,20.29
2019-06-01T01:57:09.906Z,20.31
2019-06-01T01:58:09.924Z,20.31
2019-06-01T01:59:09.883Z,20.29
2019-06-01T02:00:09.873Z,20.31
2019-06-01T02:01:22.221Z,20.29
2019-06-01T02:02:10.845Z,20.31
2019-06-01T02:03:09.839Z,20.29
2019-06-01T02:04:09.829Z,20.29
2019-06-01T02:05:09.848Z,20.29
2019-06-01T02:06:09.821Z,20.28
2019-06-01T02:07:09.798Z,20.31
2019-06-01T02:08:09.799Z,20.29
2019-06-01T02:09:09.774Z,20.29
2019-06-01T02:10:09.791Z,20.29
2019-06-01T02:11:09.752Z,20.28
2019-06-01T02:12:09.740Z,20.29
2019-06-01T02:13:09.730Z,20.29
2019-06-01T02:14:09.747Z,20.29
2019-06-01T02:15:09.706Z,20.31
2019-06-01T02:16:09.703Z,20.31
2019-06-01T02:17:09.719Z,20.29
2019-06-01T02:18:09.676Z,20.29
2019-06-01T02:19:09.680Z,20.29
2019-06-01T02:20:24.383Z,20.29
2019-06-01T02:21:09.655Z,20.29
2019-06-01T02:22:09.668Z,20.31
2019-06-01T02:23:09.618Z,20.29
2019-06-01T02:24:09.609Z,20.29
2019-06-01T02:25:09.597Z,20.31
2019-06-01T02:26:09.588Z,20.28
2019-06-01T02:27:09.622Z,20.29
2019-06-01T02:28:09.569Z,20.29
2019-06-01T02:29:09.551Z,20.29
2019-06-01T02:30:09.541Z,20.31
2019-06-01T02:31:09.586Z,20.29
2019-06-01T02:32:09.523Z,20.29
2019-06-01T02:33:09.516Z,20.29
2019-06-01T02:34:09.502Z,20.28
2019-06-01T02:35:09.489Z,20.28
2019-06-01T02:36:09.510Z,20.29
2019-06-01T02:37:09.471Z,20.29
2019-06-01T02:38:09.464Z,20.31
2019-06-01T02:39:09.450Z,20.29
2019-06-01T02:40:09.438Z,20.29
2019-06-01T02:41:09.462Z,20.28
2019-06-01T02:42:09.413Z,20.29
2019-06-01T02:43:09.401Z,20.28
2019-06-01T02:44:09.391Z,20.31
2019-06-01T02:45:09.378Z,20.29
2019-06-01T02:46:09.401Z,20.29
2019-06-01T02:47:09.362Z,20.29
2019-06-01T02:48:09.356Z,20.29
2019-06-01T02:49:09.339Z,20.28
2019-06-01T02:50:09.359Z,20.29
2019-06-01T02:51:09.323Z,20.29
2019-06-01T02:52:09.301Z,20.29
2019-06-01T02:53:09.300Z,20.29
2019-06-01T02:54:09.292Z,20.28
2019-06-01T02:55:09.307Z,20.29
2019-06-01T02:56:09.281Z,20.28
2019-06-01T02:57:09.267Z,20.29
2019-06-01T02:58:09.237Z,20.29
2019-06-01T02:59:09.231Z,20.29
2019-06-01T03:00:09.218Z,20.29
2019-06-01T03:01:09.250Z,20.29
2019-06-01T03:02:13.317Z,20.29
2019-06-01T03:03:10.217Z,20.29
2019-06-01T03:04:09.208Z,20.29
2019-06-01T03:05:09.164Z,20.29
2019-06-01T03:06:09.190Z,20.29
2019-06-01T03:07:09.141Z,20.28
2019-06-01T03:08:09.161Z,20.29
2019-06-01T03:09:09.277Z,20.29
2019-06-01T03:10:09.108Z,20.28
2019-06-01T03:11:09.101Z,20.28
2019-06-01T03:12:09.089Z,20.28
2019-06-01T03:13:09.124Z,20.29
2019-06-01T03:14:09.107Z,20.28
2019-06-01T03:15:09.058Z,20.29
2019-06-01T03:16:09.046Z,20.29
2019-06-01T03:17:09.839Z,20.29
2019-06-01T03:18:09.067Z,20.28
2019-06-01T03:19:09.020Z,20.31
2019-06-01T03:20:09.000Z,20.29
2019-06-01T03:21:08.989Z,20.28
2019-06-01T03:22:08.975Z,20.29
2019-06-01T03:23:09.006Z,20.28
2019-06-01T03:24:08.959Z,20.28
2019-06-01T03:25:08.950Z,20.28
2019-06-01T03:26:08.931Z,20.28
2019-06-01T03:27:08.944Z,20.29
2019-06-01T03:28:08.934Z,20.28
2019-06-01T03:29:09.514Z,20.26
2019-06-01T03:30:12.030Z,20.28
2019-06-01T03:31:10.697Z,20.28
2019-06-01T03:32:29.737Z,20.28
2019-06-01T03:33:10.624Z,20.28
2019-06-01T03:34:11.196Z,20.28
2019-06-01T03:35:08.952Z,20.29
2019-06-01T03:36:09.093Z,20.28
2019-06-01T03:37:09.077Z,20.29
2019-06-01T03:38:09.253Z,20.28
2019-06-01T03:39:08.826Z,20.29
2019-06-01T03:40:18.580Z,20.29
2019-06-01T03:41:09.767Z,20.28
2019-06-01T03:42:09.514Z,20.28
2019-06-01T03:43:09.366Z,20.29
2019-06-01T03:44:08.770Z,20.28
2019-06-01T03:45:09.629Z,20.28
2019-06-01T03:46:08.797Z,20.28
2019-06-01T03:47:09.744Z,20.28
2019-06-01T03:48:08.787Z,20.28
2019-06-01T03:49:09.770Z,20.29
2019-06-01T03:50:09.202Z,20.29
2019-06-01T03:51:09.788Z,20.28
2019-06-01T03:52:08.923Z,20.28
2019-06-01T03:53:09.879Z,20.28
2019-06-01T03:54:10.117Z,20.28
2019-06-01T03:55:09.855Z,20.28
2019-06-01T03:56:09.044Z,20.28
2019-06-01T03:57:09.205Z,20.28
2019-06-01T03:58:09.116Z,20.28
2019-06-01T03:59:09.314Z,20.28
2019-06-01T04:00:09.384Z,20.28
2019-06-01T04:01:09.139Z,20.26
2019-06-01T04:02:09.218Z,20.29
2019-06-01T04:03:09.230Z,20.29
2019-06-01T04:04:09.344Z,20.28
2019-06-01T04:05:09.325Z,20.28
2019-06-01T04:06:09.438Z,20.28
2019-06-01T04:07:08.535Z,20.29
2019-06-01T04:08:09.627Z,20.28
2019-06-01T04:09:09.716Z,20.28
2019-06-01T04:10:09.796Z,20.29
2019-06-01T04:11:09.673Z,20.28
2019-06-01T04:12:09.683Z,20.28
2019-06-01T04:13:09.564Z,20.28
2019-06-01T04:14:09.672Z,20.29
2019-06-01T04:15:12.816Z,20.28
2019-06-01T04:16:10.033Z,20.28
2019-06-01T04:17:08.419Z,20.29
2019-06-01T04:18:08.368Z,20.29
2019-06-01T04:19:08.358Z,20.29
2019-06-01T04:20:08.354Z,20.29
2019-06-01T04:21:08.337Z,20.26
2019-06-01T04:22:08.357Z,20.28
2019-06-01T04:23:08.356Z,20.26
2019-06-01T04:24:08.299Z,20.28
2019-06-01T04:25:08.430Z,20.28
2019-06-01T04:26:08.285Z,20.29
2019-06-01T04:27:08.291Z,20.28
2019-06-01T04:28:08.296Z,20.28
2019-06-01T04:29:08.361Z,20.29
2019-06-01T04:30:09.398Z,20.28
2019-06-01T04:31:08.569Z,20.28
2019-06-01T04:32:08.674Z,20.29
2019-06-01T04:33:08.988Z,20.28
2019-06-01T04:34:08.822Z,20.28
2019-06-01T04:35:09.002Z,20.28
2019-06-01T04:36:09.007Z,20.28
2019-06-01T04:37:09.192Z,20.28
2019-06-01T04:38:09.232Z,20.29
2019-06-01T04:39:09.332Z,20.28
2019-06-01T04:40:09.430Z,20.29
2019-06-01T04:41:08.112Z,20.29
2019-06-01T04:42:08.135Z,20.28
2019-06-01T04:43:08.088Z,20.28
2019-06-01T04:44:08.086Z,20.28
2019-06-01T04:45:09.158Z,20.28
2019-06-01T04:46:08.228Z,20.28
2019-06-01T04:47:09.290Z,20.28
2019-06-01T04:48:08.447Z,20.29
2019-06-01T04:49:08.546Z,20.28
2019-06-01T04:50:08.703Z,20.31
2019-06-01T04:51:08.821Z,20.28
2019-06-01T04:52:08.858Z,20.28
2019-06-01T04:53:08.833Z,20.28
2019-06-01T04:54:08.785Z,20.28
2019-06-01T04:55:09.070Z,20.28
2019-06-01T04:56:09.006Z,20.29
2019-06-01T04:57:08.912Z,20.28
2019-06-01T04:58:08.956Z,20.28
2019-06-01T04:59:08.878Z,20.28
2019-06-01T05:00:19.792Z,20.26
2019-06-01T05:01:09.095Z,20.29
2019-06-01T05:02:09.095Z,20.28
2019-06-01T05:03:09.223Z,20.29
2019-06-01T05:04:08.989Z,20.28
2019-06-01T05:05:09.158Z,20.28
2019-06-01T05:06:09.153Z,20.29
2019-06-01T05:07:09.180Z,20.28
2019-06-01T05:08:09.311Z,20.28
2019-06-01T05:09:07.800Z,20.29
2019-06-01T05:10:07.797Z,20.29
2019-06-01T05:11:08.964Z,20.29
2019-06-01T05:12:07.777Z,20.29
2019-06-01T05:13:07.758Z,20.29
2019-06-01T05:14:07.744Z,20.29
2019-06-01T05:15:07.746Z,20.29
2019-06-01T05:16:07.949Z,20.28
2019-06-01T05:17:07.894Z,20.29
2019-06-01T05:18:07.983Z,20.28
2019-06-01T05:19:08.105Z,20.28
2019-06-01T05:20:08.313Z,20.29
2019-06-01T05:21:08.442Z,20.29
2019-06-01T05:22:08.416Z,20.28
2019-06-01T05:23:08.547Z,20.28
2019-06-01T05:24:08.819Z,20.29
2019-06-01T05:25:08.958Z,20.28
2019-06-01T05:26:08.679Z,20.28
2019-06-01T05:27:08.893Z,20.28
2019-06-01T05:28:07.593Z,20.29
2019-06-01T05:29:07.591Z,20.29
2019-06-01T05:30:07.633Z,20.28
2019-06-01T05:31:09.755Z,20.29
2019-06-01T05:32:08.550Z,20.29
2019-06-01T05:33:22.416Z,20.29
2019-06-01T05:34:09.639Z,20.29
2019-06-01T05:35:07.787Z,20.31
2019-06-01T05:36:08.020Z,20.31
2019-06-01T05:37:08.517Z,20.28
2019-06-01T05:38:08.110Z,20.29
2019-06-01T05:39:08.260Z,20.31
2019-06-01T05:40:08.443Z,20.31
2019-06-01T05:41:09.963Z,20.31
2019-06-01T05:42:08.892Z,20.31
2019-06-01T05:43:10.667Z,20.28
2019-06-01T05:44:08.853Z,20.31
2019-06-01T05:45:08.953Z,20.31
2019-06-01T05:46:07.422Z,20.31
2019-06-01T05:47:07.381Z,20.31
2019-06-01T05:48:07.386Z,20.31
2019-06-01T05:49:07.365Z,20.29
2019-06-01T05:50:07.347Z,20.31
2019-06-01T05:51:07.363Z,20.32
2019-06-01T05:52:07.327Z,20.31
2019-06-01T05:53:07.309Z,20.31
2019-06-01T05:54:07.300Z,20.32
2019-06-01T05:55:07.330Z,20.31
2019-06-01T05:56:07.304Z,20.31
2019-06-01T05:57:07.269Z,20.32
2019-06-01T05:58:07.254Z,20.32
2019-06-01T05:59:07.276Z,20.31
2019-06-01T06:00:07.235Z,20.29
2019-06-01T06:01:07.251Z,20.31
2019-06-01T06:02:07.215Z,20.31
2019-06-01T06:03:07.206Z,20.32
2019-06-01T06:04:07.189Z,20.32
2019-06-01T06:05:07.179Z,20.31
2019-06-01T06:06:07.204Z,20.32
2019-06-01T06:07:07.158Z,20.31
2019-06-01T06:08:07.151Z,20.31
2019-06-01T06:09:07.130Z,20.31
2019-06-01T06:10:07.122Z,20.31
2019-06-01T06:11:07.144Z,20.31
2019-06-01T06:12:07.104Z,20.32
2019-06-01T06:13:07.092Z,20.32
2019-06-01T06:14:07.084Z,20.31
2019-06-01T06:15:07.063Z,20.31
2019-06-01T06:16:07.093Z,20.31
2019-06-01T06:17:07.041Z,20.32
2019-06-01T06:18:07.034Z,20.31
2019-06-01T06:19:07.021Z,20.32
2019-06-01T06:20:07.014Z,20.34
2019-06-01T06:21:07.054Z,20.34
2019-06-01T06:22:07.028Z,20.32
2019-06-01T06:23:06.988Z,20.34
2019-06-01T06:24:06.963Z,20.32
2019-06-01T06:25:06.957Z,20.34
2019-06-01T06:26:06.977Z,20.32
2019-06-01T06:27:06.968Z,20.34
2019-06-01T06:28:06.917Z,20.32
2019-06-01T06:29:06.923Z,20.32
2019-06-01T06:30:06.944Z,20.34
2019-06-01T06:31:06.898Z,20.32
2019-06-01T06:32:09.247Z,20.34
2019-06-01T06:33:06.870Z,20.32
2019-06-01T06:34:06.860Z,20.34
2019-06-01T06:35:06.899Z,20.34
2019-06-01T06:36:06.832Z,20.32
2019-06-01T06:37:06.824Z,20.34
2019-06-01T06:38:06.815Z,20.34
2019-06-01T06:39:06.801Z,20.32
2019-06-01T06:40:06.821Z,20.32
2019-06-01T06:41:06.774Z,20.32
2019-06-01T06:42:06.793Z,20.32
2019-06-01T06:43:18.669Z,20.32
2019-06-01T06:44:07.740Z,20.34
2019-06-01T06:45:06.736Z,20.34
2019-06-01T06:46:06.720Z,20.32
2019-06-01T06:47:06.748Z,20.34
2019-06-01T06:48:06.712Z,20.34
2019-06-01T06:49:09.808Z,20.34
2019-06-01T06:50:06.684Z,20.36
2019-06-01T06:51:06.666Z,20.34
2019-06-01T06:52:06.690Z,20.36
2019-06-01T06:53:06.709Z,20.34
2019-06-01T06:54:06.641Z,20.32
2019-06-01T06:55:06.627Z,20.34
2019-06-01T06:56:06.611Z,20.32
2019-06-01T06:57:06.628Z,20.34
2019-06-01T06:58:06.592Z,20.34
2019-06-01T06:59:06.574Z,20.34
2019-06-01T07:00:06.585Z,20.34
2019-06-01T07:01:06.563Z,20.36
2019-06-01T07:02:06.591Z,20.32
2019-06-01T07:03:06.570Z,20.34
2019-06-01T07:04:12.801Z,20.34
2019-06-01T07:05:07.515Z,20.34
2019-06-01T07:06:06.511Z,20.34
2019-06-01T07:07:06.491Z,20.36
2019-06-01T07:08:06.526Z,20.34
2019-06-01T07:09:06.478Z,20.34
2019-06-01T07:10:06.456Z,20.36
2019-06-01T07:11:06.490Z,20.34
2019-06-01T07:12:06.434Z,20.36
2019-06-01T07:13:06.441Z,20.36
2019-06-01T07:14:06.425Z,20.34
2019-06-01T07:15:06.436Z,20.36
2019-06-01T07:16:06.400Z,20.36
2019-06-01T07:17:06.402Z,20.36
2019-06-01T07:18:06.394Z,20.36
2019-06-01T07:19:06.353Z,20.37
2019-06-01T07:20:06.380Z,20.36
2019-06-01T07:21:06.339Z,20.34
2019-06-01T07:22:06.335Z,20.36
2019-06-01T07:23:06.314Z,20.36
2019-06-01T07:24:06.303Z,20.37
2019-06-01T07:25:06.329Z,20.36
2019-06-01T07:26:06.284Z,20.37
2019-06-01T07:27:06.313Z,20.37
2019-06-01T07:28:06.277Z,20.36
2019-06-01T07:29:06.250Z,20.36
2019-06-01T07:30:06.272Z,20.36
2019-06-01T07:31:06.227Z,20.37
2019-06-01T07:32:06.240Z,20.37
2019-06-01T07:33:06.200Z,20.36
2019-06-01T07:34:06.195Z,20.36
2019-06-01T07:35:06.222Z,20.36
2019-06-01T07:36:06.165Z,20.39
2019-06-01T07:37:06.156Z,20.37
2019-06-01T07:38:06.143Z,20.36
2019-06-01T07:39:06.135Z,20.36
2019-06-01T07:40:06.167Z,20.36
2019-06-01T07:41:06.111Z,20.36
2019-06-01T07:42:06.148Z,20.37
2019-06-01T07:43:06.098Z,20.36
2019-06-01T07:44:06.080Z,20.36
2019-06-01T07:45:06.068Z,20.36
2019-06-01T07:46:06.054Z,20.37
2019-06-01T07:47:06.070Z,20.37
2019-06-01T07:48:06.033Z,20.37
2019-06-01T07:49:06.024Z,20.36
2019-06-01T07:50:06.036Z,20.36
2019-06-01T07:51:05.998Z,20.37
2019-06-01T07:52:12.704Z,20.37
2019-06-01T07:53:06.979Z,20.37
2019-06-01T07:54:05.965Z,20.37
2019-06-01T07:55:05.957Z,20.36
2019-06-01T07:56:05.977Z,20.37
2019-06-01T07:57:05.968Z,20.36
2019-06-01T07:58:05.920Z,20.36
2019-06-01T07:59:05.912Z,20.37
2019-06-01T08:00:05.905Z,20.37
2019-06-01T08:01:05.947Z,20.37
2019-06-01T08:02:05.947Z,20.37
2019-06-01T08:03:05.869Z,20.39
2019-06-01T08:04:05.859Z,20.39
2019-06-01T08:05:05.891Z,20.40
2019-06-01T08:06:05.877Z,20.40
2019-06-01T08:07:05.824Z,20.41
2019-06-01T08:08:05.813Z,20.43
2019-06-01T08:09:05.802Z,20.43
2019-06-01T08:10:05.783Z,20.44
2019-06-01T08:11:05.825Z,20.44
2019-06-01T08:12:05.763Z,20.44
2019-06-01T08:13:05.757Z,20.44
2019-06-01T08:14:05.745Z,20.47
2019-06-01T08:15:05.728Z,20.47
2019-06-01T08:16:05.765Z,20.48
2019-06-01T08:17:05.707Z,20.48
2019-06-01T08:18:05.694Z,20.50
2019-06-01T08:19:05.705Z,20.51
2019-06-01T08:20:05.679Z,20.50
2019-06-01T08:21:05.732Z,20.51
2019-06-01T08:22:05.705Z,20.52
2019-06-01T08:23:05.641Z,20.52
2019-06-01T08:24:05.737Z,20.52
2019-06-01T08:25:05.616Z,20.55
2019-06-01T08:26:05.683Z,20.55
2019-06-01T08:27:05.604Z,20.55
2019-06-01T08:28:05.605Z,20.55
2019-06-01T08:29:05.570Z,20.56
2019-06-01T08:30:05.661Z,20.58
2019-06-01T08:31:05.552Z,20.58
2019-06-01T08:32:05.567Z,20.58
2019-06-01T08:33:05.569Z,20.58
2019-06-01T08:34:05.531Z,20.58
2019-06-01T08:35:09.120Z,20.58
2019-06-01T08:36:05.492Z,20.59
2019-06-01T08:37:05.511Z,20.60
2019-06-01T08:38:05.520Z,20.60
2019-06-01T08:39:05.467Z,20.60
2019-06-01T08:40:05.452Z,20.60
2019-06-01T08:41:05.444Z,20.60
2019-06-01T08:42:05.432Z,20.63
2019-06-01T08:43:05.449Z,20.62
2019-06-01T08:44:05.406Z,20.63
2019-06-01T08:45:05.403Z,20.62
2019-06-01T08:46:05.390Z,20.62
2019-06-01T08:47:05.394Z,20.63
2019-06-01T08:48:05.397Z,20.63
2019-06-01T08:49:05.349Z,20.63
2019-06-01T08:50:05.342Z,20.65
2019-06-01T08:51:05.367Z,20.65
2019-06-01T08:52:05.320Z,20.63
2019-06-01T08:53:05.313Z,20.65
2019-06-01T08:54:05.302Z,20.66
2019-06-01T08:55:05.287Z,20.65
2019-06-01T08:56:05.312Z,20.65
2019-06-01T08:57:05.266Z,20.66
2019-06-01T08:58:05.251Z,20.66
2019-06-01T08:59:05.242Z,20.66
2019-06-01T09:00:05.248Z,20.67
2019-06-01T09:01:05.248Z,20.67
2019-06-01T09:02:05.212Z,20.69
2019-06-01T09:03:05.199Z,20.69
2019-06-01T09:04:05.183Z,20.69
2019-06-01T09:05:05.174Z,20.69
2019-06-01T09:06:05.186Z,20.70
2019-06-01T09:07:05.190Z,20.69
2019-06-01T09:08:05.151Z,20.70
2019-06-01T09:09:05.133Z,20.69
2019-06-01T09:10:05.138Z,20.70
2019-06-01T09:11:05.117Z,20.72
2019-06-01T09:12:05.133Z,20.72
2019-06-01T09:13:05.093Z,20.70
2019-06-01T09:14:05.080Z,20.70
2019-06-01T09:15:05.065Z,20.72
2019-06-01T09:16:05.068Z,20.72
2019-06-01T09:17:05.078Z,20.72
2019-06-01T09:18:05.029Z,20.72
2019-06-01T09:19:05.026Z,20.72
2019-06-01T09:20:05.017Z,20.70
2019-06-01T09:21:05.005Z,20.72
2019-06-01T09:22:05.021Z,20.72
2019-06-01T09:23:04.986Z,20.72
2019-06-01T09:24:04.983Z,20.72
2019-06-01T09:25:05.003Z,20.72
2019-06-01T09:26:04.948Z,20.74
2019-06-01T09:27:05.124Z,20.72
2019-06-01T09:28:04.927Z,20.74
2019-06-01T09:29:04.915Z,20.74
2019-06-01T09:30:04.897Z,20.74
2019-06-01T09:31:04.927Z,20.75
2019-06-01T09:32:04.887Z,20.75
2019-06-01T09:33:04.880Z,20.77
2019-06-01T09:34:04.860Z,20.78
2019-06-01T09:35:04.841Z,20.78
2019-06-01T09:36:04.883Z,20.78
2019-06-01T09:37:04.820Z,20.77
2019-06-01T09:38:04.814Z,20.78
2019-06-01T09:39:04.803Z,20.78
2019-06-01T09:40:04.789Z,20.78
2019-06-01T09:41:04.817Z,20.78
2019-06-01T09:42:04.771Z,20.78
2019-06-01T09:43:04.763Z,20.78
2019-06-01T09:44:04.747Z,20.80
2019-06-01T09:45:04.779Z,20.78
2019-06-01T09:46:04.728Z,20.80
2019-06-01T09:47:04.725Z,20.80
2019-06-01T09:48:04.709Z,20.78
2019-06-01T09:49:04.687Z,20.80
2019-06-01T09:50:04.711Z,20.80
2019-06-01T09:51:04.667Z,20.80
2019-06-01T09:52:04.681Z,20.80
2019-06-01T09:53:04.646Z,20.80
2019-06-01T09:54:04.634Z,20.78
2019-06-01T09:55:04.661Z,20.80
2019-06-01T09:56:04.633Z,20.78
2019-06-01T09:57:04.630Z,20.81
2019-06-01T09:58:04.596Z,20.81
2019-06-01T09:59:04.585Z,20.80
2019-06-01T10:00:04.690Z,20.80
2019-06-01T10:01:04.562Z,20.81
2019-06-01T10:02:04.594Z,20.80
2019-06-01T10:03:04.532Z,20.81
2019-06-01T10:04:04.526Z,20.82
2019-06-01T10:05:04.515Z,20.82
2019-06-01T10:06:04.507Z,20.82
2019-06-01T10:07:04.536Z,20.82
2019-06-01T10:08:04.487Z,20.82
2019-06-01T10:09:04.482Z,20.82
2019-06-01T10:10:04.454Z,20.84
2019-06-01T10:11:04.451Z,20.84
2019-06-01T10:12:04.464Z,20.85
2019-06-01T10:13:07.664Z,20.85
2019-06-01T10:14:04.416Z,20.87
2019-06-01T10:15:04.407Z,20.87
2019-06-01T10:16:04.392Z,20.88
2019-06-01T10:17:04.409Z,20.90
2019-06-01T10:18:04.372Z,20.90
2019-06-01T10:19:04.369Z,20.92
2019-06-01T10:20:04.346Z,20.93
2019-06-01T10:21:04.332Z,20.95
2019-06-01T10:22:04.363Z,20.95
2019-06-01T10:23:04.317Z,20.95
2019-06-01T10:24:04.296Z,20.96
2019-06-01T10:25:04.290Z,20.96
2019-06-01T10:26:04.281Z,20.97
2019-06-01T10:27:04.336Z,20.97
2019-06-01T10:28:04.252Z,20.99
2019-06-01T10:29:04.246Z,20.99
2019-06-01T10:30:04.252Z,21.00
2019-06-01T10:31:04.224Z,21.00
2019-06-01T10:32:04.256Z,20.99
2019-06-01T10:33:04.197Z,21.00
2019-06-01T10:34:04.796Z,21.00
2019-06-01T10:35:04.178Z,21.00
2019-06-01T10:36:19.340Z,21.00
2019-06-01T10:37:05.206Z,21.00
2019-06-01T10:38:04.150Z,20.99
2019-06-01T10:39:04.135Z,20.99
2019-06-01T10:40:04.145Z,20.99
2019-06-01T10:41:04.114Z,20.99
2019-06-01T10:42:04.102Z,20.96
2019-06-01T10:43:04.122Z,20.97
2019-06-01T10:44:04.082Z,20.97
2019-06-01T10:45:04.140Z,20.97
2019-06-01T10:46:04.071Z,20.97
2019-06-01T10:47:04.066Z,20.97
2019-06-01T10:48:04.066Z,20.97
2019-06-01T10:49:04.022Z,20.97
2019-06-01T10:50:04.027Z,20.99
2019-06-01T10:51:03.997Z,20.99
2019-06-01T10:52:04.013Z,20.97
2019-06-01T10:53:03.994Z,20.99
2019-06-01T10:54:03.966Z,20.97
2019-06-01T10:55:03.955Z,20.97
2019-06-01T10:56:03.945Z,20.96
2019-06-01T10:57:03.964Z,20.99
2019-06-01T10:58:03.944Z,20.97
2019-06-01T10:59:03.919Z,20.97
2019-06-01T11:00:03.933Z,20.99
2019-06-01T11:01:03.889Z,20.97
2019-06-01T11:02:03.890Z,20.97
2019-06-01T11:03:03.915Z,20.97
2019-06-01T11:04:03.860Z,20.97
2019-06-01T11:05:03.886Z,20.96
2019-06-01T11:06:03.838Z,20.97
2019-06-01T11:07:03.825Z,20.99
2019-06-01T11:08:03.843Z,20.96
2019-06-01T11:09:03.839Z,20.96
2019-06-01T11:10:03.820Z,20.96
2019-06-01T11:11:03.783Z,20.95
2019-06-01T11:12:03.779Z,20.93
2019-06-01T11:13:03.757Z,20.96
2019-06-01T11:14:03.775Z,20.95
2019-06-01T11:15:03.734Z,20.95
2019-06-01T11:16:03.748Z,20.93
2019-06-01T11:17:03.749Z,20.92
2019-06-01T11:18:03.700Z,20.92
2019-06-01T11:19:03.700Z,20.92
2019-06-01T11:20:03.684Z,20.92
2019-06-01T11:21:03.703Z,20.92
2019-06-01T11:22:03.657Z,20.90
2019-06-01T11:23:03.675Z,20.92
2019-06-01T11:24:03.669Z,20.92
2019-06-01T11:25:03.649Z,20.92
2019-06-01T11:26:03.667Z,20.92
2019-06-01T11:27:03.600Z,20.90
2019-06-01T11:28:03.594Z,20.90
2019-06-01T11:29:03.580Z,20.90
2019-06-01T11:30:03.573Z,20.88
2019-06-01T11:31:03.592Z,20.90
2019-06-01T11:32:03.545Z,20.90
2019-06-01T11:33:03.531Z,20.88
2019-06-01T11:34:03.529Z,20.88
2019-06-01T11:35:03.517Z,20.88
2019-06-01T11:36:03.548Z,20.88
2019-06-01T11:37:05.613Z,20.88
2019-06-01T11:38:03.483Z,20.88
2019-06-01T11:39:03.504Z,20.88
2019-06-01T11:40:03.469Z,20.88
2019-06-01T11:41:03.441Z,20.88
2019-06-01T11:42:03.477Z,20.88
2019-06-01T11:43:03.419Z,20.87
2019-06-01T11:44:03.417Z,20.87
2019-06-01T11:45:03.407Z,20.85
2019-06-01T11:46:03.390Z,20.85
2019-06-01T11:47:03.413Z,20.87
2019-06-01T11:48:03.369Z,20.87
2019-06-01T11:49:03.375Z,20.87
2019-06-01T11:50:03.342Z,20.85
2019-06-01T11:51:03.393Z,20.87
2019-06-01T11:52:03.354Z,20.85
2019-06-01T11:53:03.311Z,20.87
2019-06-01T11:54:03.305Z,20.87
2019-06-01T11:55:03.289Z,20.85
2019-06-01T11:56:03.313Z,20.87
2019-06-01T11:57:03.285Z,20.87
2019-06-01T11:58:03.406Z,20.85
2019-06-01T11:59:03.247Z,20.85
2019-06-01T12:00:03.255Z,20.85
2019-06-01T12:01:03.257Z,20.85
2019-06-01T12:02:03.219Z,20.85
2019-06-01T12:03:03.228Z,20.85
2019-06-01T12:04:03.190Z,20.85
2019-06-01T12:05:03.218Z,20.84
2019-06-01T12:06:03.168Z,20.85
2019-06-01T12:07:16.955Z,20.84
2019-06-01T12:08:04.139Z,20.85
2019-06-01T12:09:03.187Z,20.85
2019-06-01T12:10:03.126Z,20.85
2019-06-01T12:11:03.120Z,20.84
2019-06-01T12:12:03.122Z,20.85
2019-06-01T12:13:03.086Z,20.85
2019-06-01T12:14:03.112Z,20.87
2019-06-01T12:15:03.095Z,20.85
2019-06-01T12:16:03.054Z,20.85
2019-06-01T12:17:03.048Z,20.85
2019-06-01T12:18:03.039Z,20.84
2019-06-01T12:19:03.059Z,20.84
2019-06-01T12:20:03.029Z,20.84
2019-06-01T12:21:03.035Z,20.84
2019-06-01T12:22:03.003Z,20.84
2019-06-01T12:23:02.975Z,20.84
2019-06-01T12:24:02.998Z,20.84
2019-06-01T12:25:02.974Z,20.84
2019-06-01T12:26:02.942Z,20.82
2019-06-01T12:27:02.936Z,20.85
2019-06-01T12:28:02.927Z,20.84
2019-06-01T12:29:02.942Z,20.82
2019-06-01T12:30:02.906Z,20.84
2019-06-01T12:31:02.897Z,20.84
2019-06-01T12:32:02.887Z,20.84
2019-06-01T12:33:02.882Z,20.84
2019-06-01T12:34:02.901Z,20.84
2019-06-01T12:35:03.604Z,20.85
2019-06-01T12:36:02.862Z,20.84
2019-06-01T12:37:02.825Z,20.84
2019-06-01T12:38:06.828Z,20.81
2019-06-01T12:39:02.802Z,20.82
2019-06-01T12:40:02.797Z,20.84
2019-06-01T12:41:02.815Z,20.84
2019-06-01T12:42:02.766Z,20.84
2019-06-01T12:43:02.768Z,20.84
2019-06-01T12:44:02.744Z,20.84
2019-06-01T12:45:02.752Z,20.84
2019-06-01T12:46:07.108Z,20.84
2019-06-01T12:47:03.716Z,20.82
2019-06-01T12:48:02.721Z,20.85
2019-06-01T12:49:02.693Z,20.84
2019-06-01T12:50:02.716Z,20.84
2019-06-01T12:51:02.701Z,20.85
2019-06-01T12:52:02.664Z,20.85